sensor_id;sensor_type;location;lat;lon;timestamp;P1;durP1;ratioP1;P2;durP2;ratioP2
10031;SDS011;5056;44.272;19.892;2022-10-30T00:01:23;23.37;;;20.90;;
10031;SDS011;5056;44.272;19.892;2022-10-30T00:03:50;24.43;;;20.17;;
10031;SDS011;5056;44.272;19.892;2022-10-30T00:06:17;25.03;;;21.53;;
10031;SDS011;5056;44.272;19.892;2022-10-30T00:08:44;26.90;;;21.77;;
10031;SDS011;5056;44.272;19.892;2022-10-30T00:14:15;26.83;;;20.70;;
10031;SDS011;5056;44.272;19.892;2022-10-30T00:16:50;22.63;;;19.07;;
10031;SDS011;5056;44.272;19.892;2022-10-30T00:19:17;22.57;;;19.23;;
10031;SDS011;5056;44.272;19.892;2022-10-30T00:21:44;19.40;;;17.10;;
10031;SDS011;5056;44.272;19.892;2022-10-30T00:24:11;21.03;;;18.07;;
10031;SDS011;5056;44.272;19.892;2022-10-30T00:26:40;19.20;;;16.37;;
10031;SDS011;5056;44.272;19.892;2022-10-30T00:29:18;19.23;;;17.23;;
10031;SDS011;5056;44.272;19.892;2022-10-30T00:31:47;21.63;;;19.17;;
10031;SDS011;5056;44.272;19.892;2022-10-30T00:34:15;20.17;;;18.03;;
10031;SDS011;5056;44.272;19.892;2022-10-30T00:36:45;20.20;;;18.10;;
10031;SDS011;5056;44.272;19.892;2022-10-30T00:39:13;19.63;;;17.53;;
10031;SDS011;5056;44.272;19.892;2022-10-30T00:44:56;18.30;;;16.40;;
10031;SDS011;5056;44.272;19.892;2022-10-30T00:47:27;19.30;;;17.27;;
10031;SDS011;5056;44.272;19.892;2022-10-30T00:50:04;19.70;;;17.60;;
10031;SDS011;5056;44.272;19.892;2022-10-30T00:52:47;19.73;;;17.67;;
10031;SDS011;5056;44.272;19.892;2022-10-30T01:00:49;18.80;;;16.30;;
10031;SDS011;5056;44.272;19.892;2022-10-30T01:03:24;18.17;;;16.30;;
10031;SDS011;5056;44.272;19.892;2022-10-30T01:05:54;17.67;;;15.90;;
10031;SDS011;5056;44.272;19.892;2022-10-30T01:08:26;18.20;;;16.23;;
10031;SDS011;5056;44.272;19.892;2022-10-30T01:11:03;18.70;;;16.87;;
10031;SDS011;5056;44.272;19.892;2022-10-30T01:13:42;17.93;;;16.23;;
10031;SDS011;5056;44.272;19.892;2022-10-30T01:16:30;18.67;;;16.80;;
10031;SDS011;5056;44.272;19.892;2022-10-30T01:19:21;19.83;;;17.90;;
10031;SDS011;5056;44.272;19.892;2022-10-30T01:22:01;17.03;;;15.43;;
10031;SDS011;5056;44.272;19.892;2022-10-30T01:24:41;18.23;;;16.33;;
10031;SDS011;5056;44.272;19.892;2022-10-30T01:27:24;18.30;;;16.40;;
10031;SDS011;5056;44.272;19.892;2022-10-30T01:30:03;18.07;;;16.20;;
10031;SDS011;5056;44.272;19.892;2022-10-30T01:32:48;18.60;;;16.73;;
10031;SDS011;5056;44.272;19.892;2022-10-30T01:35:22;20.13;;;17.40;;
10031;SDS011;5056;44.272;19.892;2022-10-30T01:37:53;19.13;;;17.33;;
10031;SDS011;5056;44.272;19.892;2022-10-30T01:40:25;18.97;;;16.67;;
10031;SDS011;5056;44.272;19.892;2022-10-30T01:42:56;17.03;;;15.43;;
10031;SDS011;5056;44.272;19.892;2022-10-30T01:45:27;17.17;;;15.40;;
10031;SDS011;5056;44.272;19.892;2022-10-30T01:48:13;17.50;;;15.90;;
10031;SDS011;5056;44.272;19.892;2022-10-30T01:51:07;16.33;;;14.70;;
10031;SDS011;5056;44.272;19.892;2022-10-30T01:53:41;16.70;;;14.97;;
10031;SDS011;5056;44.272;19.892;2022-10-30T01:56:14;23.97;;;16.70;;
10031;SDS011;5056;44.272;19.892;2022-10-30T01:58:49;18.67;;;16.83;;
10031;SDS011;5056;44.272;19.892;2022-10-30T02:01:19;18.37;;;16.43;;
10031;SDS011;5056;44.272;19.892;2022-10-30T02:03:50;19.03;;;16.73;;
10031;SDS011;5056;44.272;19.892;2022-10-30T02:06:17;17.53;;;15.70;;
10031;SDS011;5056;44.272;19.892;2022-10-30T02:08:45;16.57;;;14.97;;
10031;SDS011;5056;44.272;19.892;2022-10-30T02:11:12;16.40;;;14.80;;
10031;SDS011;5056;44.272;19.892;2022-10-30T02:13:40;16.60;;;15.00;;
10031;SDS011;5056;44.272;19.892;2022-10-30T02:16:08;15.80;;;14.00;;
10031;SDS011;5056;44.272;19.892;2022-10-30T02:18:36;16.50;;;14.90;;
10031;SDS011;5056;44.272;19.892;2022-10-30T02:21:06;16.37;;;14.73;;
10031;SDS011;5056;44.272;19.892;2022-10-30T02:23:33;18.10;;;16.40;;
10031;SDS011;5056;44.272;19.892;2022-10-30T02:26:01;18.00;;;16.30;;
10031;SDS011;5056;44.272;19.892;2022-10-30T02:28:30;19.37;;;16.33;;
10031;SDS011;5056;44.272;19.892;2022-10-30T02:30:58;17.37;;;15.70;;
10031;SDS011;5056;44.272;19.892;2022-10-30T02:33:28;16.80;;;15.20;;
10031;SDS011;5056;44.272;19.892;2022-10-30T02:35:57;16.13;;;14.60;;
10031;SDS011;5056;44.272;19.892;2022-10-30T02:41:10;16.77;;;15.23;;
10031;SDS011;5056;44.272;19.892;2022-10-30T02:43:39;15.90;;;14.47;;
10031;SDS011;5056;44.272;19.892;2022-10-30T02:46:10;16.07;;;14.47;;
10031;SDS011;5056;44.272;19.892;2022-10-30T02:48:38;15.13;;;13.73;;
10031;SDS011;5056;44.272;19.892;2022-10-30T02:51:06;15.53;;;14.00;;
10031;SDS011;5056;44.272;19.892;2022-10-30T02:53:33;16.47;;;14.93;;
10031;SDS011;5056;44.272;19.892;2022-10-30T02:56:05;15.97;;;14.53;;
10031;SDS011;5056;44.272;19.892;2022-10-30T02:58:33;16.57;;;14.97;;
10031;SDS011;5056;44.272;19.892;2022-10-30T03:01:06;16.83;;;15.23;;
10031;SDS011;5056;44.272;19.892;2022-10-30T03:03:34;20.87;;;17.63;;
10031;SDS011;5056;44.272;19.892;2022-10-30T03:06:14;21.70;;;17.73;;
10031;SDS011;5056;44.272;19.892;2022-10-30T03:08:49;21.57;;;17.80;;
10031;SDS011;5056;44.272;19.892;2022-10-30T03:11:18;20.20;;;17.83;;
10031;SDS011;5056;44.272;19.892;2022-10-30T03:13:53;19.40;;;17.40;;
10031;SDS011;5056;44.272;19.892;2022-10-30T03:16:23;18.33;;;16.43;;
10031;SDS011;5056;44.272;19.892;2022-10-30T03:18:53;17.77;;;15.97;;
10031;SDS011;5056;44.272;19.892;2022-10-30T03:24:12;18.27;;;15.57;;
10031;SDS011;5056;44.272;19.892;2022-10-30T03:26:41;16.83;;;15.23;;
10031;SDS011;5056;44.272;19.892;2022-10-30T03:29:08;16.73;;;15.03;;
10031;SDS011;5056;44.272;19.892;2022-10-30T03:31:36;15.83;;;14.23;;
10031;SDS011;5056;44.272;19.892;2022-10-30T03:34:05;15.90;;;14.30;;
10031;SDS011;5056;44.272;19.892;2022-10-30T03:36:33;15.83;;;14.30;;
10031;SDS011;5056;44.272;19.892;2022-10-30T03:39:02;15.40;;;13.83;;
10031;SDS011;5056;44.272;19.892;2022-10-30T03:41:29;15.60;;;14.20;;
10031;SDS011;5056;44.272;19.892;2022-10-30T03:43:59;15.10;;;13.63;;
10031;SDS011;5056;44.272;19.892;2022-10-30T03:46:27;15.93;;;14.53;;
10031;SDS011;5056;44.272;19.892;2022-10-30T03:48:56;15.57;;;14.07;;
10031;SDS011;5056;44.272;19.892;2022-10-30T03:51:34;15.63;;;14.20;;
10031;SDS011;5056;44.272;19.892;2022-10-30T03:54:02;14.97;;;13.47;;
10031;SDS011;5056;44.272;19.892;2022-10-30T03:56:30;15.70;;;14.23;;
10031;SDS011;5056;44.272;19.892;2022-10-30T03:59:06;14.83;;;13.53;;
10031;SDS011;5056;44.272;19.892;2022-10-30T04:01:33;15.30;;;13.80;;
10031;SDS011;5056;44.272;19.892;2022-10-30T04:04:01;15.27;;;13.70;;
10031;SDS011;5056;44.272;19.892;2022-10-30T04:06:28;15.27;;;13.77;;
10031;SDS011;5056;44.272;19.892;2022-10-30T04:08:55;14.90;;;13.50;;
10031;SDS011;5056;44.272;19.892;2022-10-30T04:11:22;14.63;;;13.33;;
10031;SDS011;5056;44.272;19.892;2022-10-30T04:13:49;15.40;;;13.90;;
10031;SDS011;5056;44.272;19.892;2022-10-30T04:16:20;39.13;;;15.57;;
10031;SDS011;5056;44.272;19.892;2022-10-30T04:18:48;15.63;;;14.03;;
10031;SDS011;5056;44.272;19.892;2022-10-30T04:21:15;15.10;;;13.50;;
10031;SDS011;5056;44.272;19.892;2022-10-30T04:23:42;14.37;;;12.97;;
10031;SDS011;5056;44.272;19.892;2022-10-30T04:29:44;14.10;;;12.60;;
10031;SDS011;5056;44.272;19.892;2022-10-30T04:32:13;13.70;;;12.37;;
10031;SDS011;5056;44.272;19.892;2022-10-30T04:34:40;14.03;;;12.77;;
10031;SDS011;5056;44.272;19.892;2022-10-30T04:37:07;13.47;;;12.23;;
10031;SDS011;5056;44.272;19.892;2022-10-30T04:39:34;13.97;;;12.57;;
10031;SDS011;5056;44.272;19.892;2022-10-30T04:42:01;14.13;;;12.73;;
10031;SDS011;5056;44.272;19.892;2022-10-30T04:44:29;14.80;;;13.40;;
10031;SDS011;5056;44.272;19.892;2022-10-30T04:46:56;14.60;;;13.20;;
10031;SDS011;5056;44.272;19.892;2022-10-30T04:49:25;14.63;;;13.13;;
10031;SDS011;5056;44.272;19.892;2022-10-30T04:51:52;15.83;;;14.23;;
10031;SDS011;5056;44.272;19.892;2022-10-30T04:54:21;16.37;;;13.77;;
10031;SDS011;5056;44.272;19.892;2022-10-30T04:56:48;14.23;;;12.63;;
10031;SDS011;5056;44.272;19.892;2022-10-30T04:59:15;13.97;;;12.57;;
10031;SDS011;5056;44.272;19.892;2022-10-30T05:01:42;14.50;;;12.93;;
10031;SDS011;5056;44.272;19.892;2022-10-30T05:04:12;14.80;;;13.33;;
10031;SDS011;5056;44.272;19.892;2022-10-30T05:06:41;13.50;;;12.10;;
10031;SDS011;5056;44.272;19.892;2022-10-30T05:09:08;16.53;;;12.90;;
10031;SDS011;5056;44.272;19.892;2022-10-30T05:14:57;14.00;;;12.67;;
10031;SDS011;5056;44.272;19.892;2022-10-30T05:17:24;15.03;;;13.63;;
10031;SDS011;5056;44.272;19.892;2022-10-30T05:19:52;14.87;;;13.30;;
10031;SDS011;5056;44.272;19.892;2022-10-30T05:22:22;14.53;;;13.13;;
10031;SDS011;5056;44.272;19.892;2022-10-30T05:24:49;15.63;;;14.03;;
10031;SDS011;5056;44.272;19.892;2022-10-30T05:27:16;14.43;;;12.97;;
10031;SDS011;5056;44.272;19.892;2022-10-30T05:29:46;14.83;;;13.40;;
10031;SDS011;5056;44.272;19.892;2022-10-30T05:32:12;14.20;;;12.70;;
10031;SDS011;5056;44.272;19.892;2022-10-30T05:34:40;14.43;;;13.03;;
10031;SDS011;5056;44.272;19.892;2022-10-30T05:37:07;13.20;;;12.00;;
10031;SDS011;5056;44.272;19.892;2022-10-30T05:39:37;14.10;;;12.80;;
10031;SDS011;5056;44.272;19.892;2022-10-30T05:42:03;14.03;;;12.53;;
10031;SDS011;5056;44.272;19.892;2022-10-30T05:44:31;14.00;;;12.80;;
10031;SDS011;5056;44.272;19.892;2022-10-30T05:46:58;17.17;;;15.47;;
10031;SDS011;5056;44.272;19.892;2022-10-30T05:49:25;16.07;;;14.57;;
10031;SDS011;5056;44.272;19.892;2022-10-30T05:51:52;15.20;;;13.67;;
10031;SDS011;5056;44.272;19.892;2022-10-30T05:54:20;15.77;;;14.00;;
10031;SDS011;5056;44.272;19.892;2022-10-30T05:56:48;16.73;;;13.17;;
10031;SDS011;5056;44.272;19.892;2022-10-30T05:59:15;15.97;;;14.27;;
10031;SDS011;5056;44.272;19.892;2022-10-30T06:01:42;16.27;;;14.57;;
10031;SDS011;5056;44.272;19.892;2022-10-30T06:04:09;18.43;;;16.60;;
10031;SDS011;5056;44.272;19.892;2022-10-30T06:06:36;18.03;;;16.23;;
10031;SDS011;5056;44.272;19.892;2022-10-30T06:09:03;18.23;;;16.50;;
10031;SDS011;5056;44.272;19.892;2022-10-30T06:11:31;20.10;;;15.23;;
10031;SDS011;5056;44.272;19.892;2022-10-30T06:14:01;18.33;;;16.03;;
10031;SDS011;5056;44.272;19.892;2022-10-30T06:16:28;17.63;;;15.83;;
10031;SDS011;5056;44.272;19.892;2022-10-30T06:18:55;18.37;;;16.47;;
10031;SDS011;5056;44.272;19.892;2022-10-30T06:21:24;18.03;;;16.33;;
10031;SDS011;5056;44.272;19.892;2022-10-30T06:23:53;18.53;;;16.73;;
10031;SDS011;5056;44.272;19.892;2022-10-30T06:29:26;14.83;;;13.43;;
10031;SDS011;5056;44.272;19.892;2022-10-30T06:31:53;12.53;;;11.23;;
10031;SDS011;5056;44.272;19.892;2022-10-30T06:34:22;12.40;;;11.02;;
10031;SDS011;5056;44.272;19.892;2022-10-30T06:36:50;14.68;;;12.45;;
10031;SDS011;5056;44.272;19.892;2022-10-30T06:39:17;10.15;;;9.13;;
10031;SDS011;5056;44.272;19.892;2022-10-30T06:41:44;8.15;;;7.30;;
10031;SDS011;5056;44.272;19.892;2022-10-30T06:44:11;9.43;;;8.60;;
10031;SDS011;5056;44.272;19.892;2022-10-30T06:46:40;8.25;;;7.55;;
10031;SDS011;5056;44.272;19.892;2022-10-30T06:49:07;9.90;;;8.27;;
10031;SDS011;5056;44.272;19.892;2022-10-30T06:51:33;8.38;;;7.68;;
10031;SDS011;5056;44.272;19.892;2022-10-30T06:54:02;9.77;;;8.93;;
10031;SDS011;5056;44.272;19.892;2022-10-30T06:56:29;10.20;;;9.30;;
10031;SDS011;5056;44.272;19.892;2022-10-30T06:58:57;9.57;;;8.48;;
10031;SDS011;5056;44.272;19.892;2022-10-30T07:01:25;8.68;;;7.97;;
10031;SDS011;5056;44.272;19.892;2022-10-30T07:03:53;9.25;;;8.45;;
10031;SDS011;5056;44.272;19.892;2022-10-30T07:06:20;10.25;;;8.77;;
10031;SDS011;5056;44.272;19.892;2022-10-30T07:08:48;9.77;;;8.93;;
10031;SDS011;5056;44.272;19.892;2022-10-30T07:11:16;20.10;;;18.10;;
10031;SDS011;5056;44.272;19.892;2022-10-30T07:13:44;26.13;;;22.42;;
10031;SDS011;5056;44.272;19.892;2022-10-30T07:16:11;27.77;;;23.33;;
10031;SDS011;5056;44.272;19.892;2022-10-30T07:18:38;26.05;;;23.48;;
10031;SDS011;5056;44.272;19.892;2022-10-30T07:21:07;26.17;;;23.38;;
10031;SDS011;5056;44.272;19.892;2022-10-30T07:23:34;24.27;;;21.67;;
10031;SDS011;5056;44.272;19.892;2022-10-30T07:26:03;22.95;;;20.60;;
10031;SDS011;5056;44.272;19.892;2022-10-30T07:28:31;20.80;;;18.67;;
10031;SDS011;5056;44.272;19.892;2022-10-30T07:30:58;21.55;;;19.25;;
10031;SDS011;5056;44.272;19.892;2022-10-30T07:33:28;21.20;;;19.08;;
10031;SDS011;5056;44.272;19.892;2022-10-30T07:35:55;20.70;;;18.65;;
10031;SDS011;5056;44.272;19.892;2022-10-30T07:38:23;21.20;;;18.85;;
10031;SDS011;5056;44.272;19.892;2022-10-30T07:40:51;21.83;;;18.85;;
10031;SDS011;5056;44.272;19.892;2022-10-30T07:43:18;24.00;;;21.52;;
10031;SDS011;5056;44.272;19.892;2022-10-30T07:45:45;24.65;;;21.67;;
10031;SDS011;5056;44.272;19.892;2022-10-30T07:48:13;23.05;;;20.75;;
10031;SDS011;5056;44.272;19.892;2022-10-30T07:50:40;23.83;;;21.25;;
10031;SDS011;5056;44.272;19.892;2022-10-30T07:53:07;27.38;;;24.25;;
10031;SDS011;5056;44.272;19.892;2022-10-30T07:55:36;25.38;;;22.92;;
10031;SDS011;5056;44.272;19.892;2022-10-30T07:58:03;25.45;;;22.40;;
10031;SDS011;5056;44.272;19.892;2022-10-30T08:00:30;24.02;;;21.63;;
10031;SDS011;5056;44.272;19.892;2022-10-30T08:02:57;23.13;;;20.67;;
10031;SDS011;5056;44.272;19.892;2022-10-30T08:05:24;23.38;;;21.02;;
10031;SDS011;5056;44.272;19.892;2022-10-30T08:07:51;22.20;;;19.88;;
10031;SDS011;5056;44.272;19.892;2022-10-30T08:10:18;19.83;;;17.75;;
10031;SDS011;5056;44.272;19.892;2022-10-30T08:12:48;19.75;;;17.55;;
10031;SDS011;5056;44.272;19.892;2022-10-30T08:15:15;16.60;;;15.02;;
10031;SDS011;5056;44.272;19.892;2022-10-30T08:17:46;16.02;;;14.52;;
10031;SDS011;5056;44.272;19.892;2022-10-30T08:20:14;15.10;;;13.60;;
10031;SDS011;5056;44.272;19.892;2022-10-30T08:22:44;15.75;;;14.25;;
10031;SDS011;5056;44.272;19.892;2022-10-30T08:25:12;15.88;;;14.27;;
10031;SDS011;5056;44.272;19.892;2022-10-30T08:27:49;15.95;;;14.52;;
10031;SDS011;5056;44.272;19.892;2022-10-30T08:30:17;16.35;;;14.80;;
10031;SDS011;5056;44.272;19.892;2022-10-30T08:36:09;15.95;;;14.45;;
10031;SDS011;5056;44.272;19.892;2022-10-30T08:38:36;16.17;;;14.07;;
10031;SDS011;5056;44.272;19.892;2022-10-30T08:41:04;14.23;;;12.95;;
10031;SDS011;5056;44.272;19.892;2022-10-30T08:43:34;14.05;;;12.60;;
10031;SDS011;5056;44.272;19.892;2022-10-30T08:46:03;13.65;;;11.88;;
10031;SDS011;5056;44.272;19.892;2022-10-30T08:48:30;13.48;;;12.07;;
10031;SDS011;5056;44.272;19.892;2022-10-30T08:50:57;14.40;;;12.88;;
10031;SDS011;5056;44.272;19.892;2022-10-30T08:53:25;14.10;;;12.70;;
10031;SDS011;5056;44.272;19.892;2022-10-30T08:55:55;15.73;;;14.25;;
10031;SDS011;5056;44.272;19.892;2022-10-30T09:01:46;16.50;;;14.90;;
10031;SDS011;5056;44.272;19.892;2022-10-30T09:04:15;17.45;;;15.75;;
10031;SDS011;5056;44.272;19.892;2022-10-30T09:06:42;18.17;;;16.48;;
10031;SDS011;5056;44.272;19.892;2022-10-30T09:09:12;17.38;;;15.52;;
10031;SDS011;5056;44.272;19.892;2022-10-30T09:11:46;22.13;;;17.73;;
10031;SDS011;5056;44.272;19.892;2022-10-30T09:14:13;21.17;;;19.15;;
10031;SDS011;5056;44.272;19.892;2022-10-30T09:16:40;21.25;;;18.98;;
10031;SDS011;5056;44.272;19.892;2022-10-30T09:19:11;26.30;;;20.33;;
10031;SDS011;5056;44.272;19.892;2022-10-30T09:21:40;20.00;;;17.75;;
10031;SDS011;5056;44.272;19.892;2022-10-30T09:24:08;19.60;;;17.50;;
10031;SDS011;5056;44.272;19.892;2022-10-30T09:26:36;21.40;;;19.10;;
10031;SDS011;5056;44.272;19.892;2022-10-30T09:29:03;19.67;;;17.70;;
10031;SDS011;5056;44.272;19.892;2022-10-30T09:31:31;23.02;;;19.10;;
10031;SDS011;5056;44.272;19.892;2022-10-30T09:33:59;24.92;;;20.15;;
10031;SDS011;5056;44.272;19.892;2022-10-30T09:36:30;21.23;;;19.13;;
10031;SDS011;5056;44.272;19.892;2022-10-30T09:38:57;23.85;;;21.15;;
10031;SDS011;5056;44.272;19.892;2022-10-30T09:41:31;22.70;;;20.48;;
10031;SDS011;5056;44.272;19.892;2022-10-30T09:44:15;20.77;;;18.75;;
10031;SDS011;5056;44.272;19.892;2022-10-30T09:47:04;19.80;;;17.90;;
10031;SDS011;5056;44.272;19.892;2022-10-30T09:49:54;17.58;;;15.75;;
10031;SDS011;5056;44.272;19.892;2022-10-30T09:53:09;16.80;;;15.07;;
10031;SDS011;5056;44.272;19.892;2022-10-30T09:55:46;16.08;;;14.43;;
10031;SDS011;5056;44.272;19.892;2022-10-30T09:58:22;15.00;;;13.52;;
10031;SDS011;5056;44.272;19.892;2022-10-30T10:00:52;16.38;;;13.32;;
10031;SDS011;5056;44.272;19.892;2022-10-30T10:03:35;13.07;;;11.88;;
10031;SDS011;5056;44.272;19.892;2022-10-30T10:06:14;10.38;;;9.38;;
10031;SDS011;5056;44.272;19.892;2022-10-30T10:08:47;13.13;;;9.93;;
10031;SDS011;5056;44.272;19.892;2022-10-30T10:11:19;11.77;;;8.55;;
10031;SDS011;5056;44.272;19.892;2022-10-30T10:13:50;12.57;;;8.57;;
10031;SDS011;5056;44.272;19.892;2022-10-30T10:16:20;9.32;;;7.50;;
10031;SDS011;5056;44.272;19.892;2022-10-30T10:18:51;8.95;;;7.35;;
10031;SDS011;5056;44.272;19.892;2022-10-30T10:21:27;8.18;;;7.40;;
10031;SDS011;5056;44.272;19.892;2022-10-30T10:23:57;8.02;;;7.22;;
10031;SDS011;5056;44.272;19.892;2022-10-30T10:26:40;11.75;;;7.53;;
10031;SDS011;5056;44.272;19.892;2022-10-30T10:32:20;8.68;;;7.88;;
10031;SDS011;5056;44.272;19.892;2022-10-30T10:38:04;8.95;;;7.57;;
10031;SDS011;5056;44.272;19.892;2022-10-30T10:40:42;8.25;;;7.35;;
10031;SDS011;5056;44.272;19.892;2022-10-30T10:43:29;8.68;;;7.18;;
10031;SDS011;5056;44.272;19.892;2022-10-30T10:46:06;8.57;;;7.68;;
10031;SDS011;5056;44.272;19.892;2022-10-30T10:48:50;7.72;;;7.03;;
10031;SDS011;5056;44.272;19.892;2022-10-30T10:51:31;8.43;;;7.22;;
10031;SDS011;5056;44.272;19.892;2022-10-30T10:54:01;11.57;;;8.15;;
10031;SDS011;5056;44.272;19.892;2022-10-30T10:56:33;9.50;;;8.60;;
10031;SDS011;5056;44.272;19.892;2022-10-30T10:59:12;8.90;;;8.00;;
10031;SDS011;5056;44.272;19.892;2022-10-30T11:01:42;10.88;;;9.50;;
10031;SDS011;5056;44.272;19.892;2022-10-30T11:04:12;11.80;;;10.70;;
10031;SDS011;5056;44.272;19.892;2022-10-30T11:06:42;15.40;;;12.98;;
10031;SDS011;5056;44.272;19.892;2022-10-30T11:09:14;13.68;;;11.77;;
10031;SDS011;5056;44.272;19.892;2022-10-30T11:11:46;12.70;;;11.60;;
10031;SDS011;5056;44.272;19.892;2022-10-30T11:14:14;15.65;;;11.75;;
10031;SDS011;5056;44.272;19.892;2022-10-30T11:16:53;12.00;;;10.55;;
10031;SDS011;5056;44.272;19.892;2022-10-30T11:19:25;13.25;;;12.02;;
10031;SDS011;5056;44.272;19.892;2022-10-30T11:21:54;13.77;;;12.43;;
10031;SDS011;5056;44.272;19.892;2022-10-30T11:24:28;13.80;;;12.50;;
10031;SDS011;5056;44.272;19.892;2022-10-30T11:26:58;14.82;;;12.38;;
10031;SDS011;5056;44.272;19.892;2022-10-30T11:29:48;14.23;;;12.75;;
10031;SDS011;5056;44.272;19.892;2022-10-30T11:32:17;14.10;;;12.68;;
10031;SDS011;5056;44.272;19.892;2022-10-30T11:34:50;14.93;;;12.75;;
10031;SDS011;5056;44.272;19.892;2022-10-30T11:37:30;15.13;;;13.70;;
10031;SDS011;5056;44.272;19.892;2022-10-30T11:40:02;13.82;;;12.52;;
10031;SDS011;5056;44.272;19.892;2022-10-30T11:42:33;17.70;;;15.90;;
10031;SDS011;5056;44.272;19.892;2022-10-30T11:45:00;18.98;;;15.07;;
10031;SDS011;5056;44.272;19.892;2022-10-30T11:47:30;15.30;;;13.70;;
10031;SDS011;5056;44.272;19.892;2022-10-30T11:50:00;15.00;;;13.48;;
10031;SDS011;5056;44.272;19.892;2022-10-30T11:52:28;15.68;;;14.18;;
10031;SDS011;5056;44.272;19.892;2022-10-30T11:55:07;11.52;;;10.35;;
10031;SDS011;5056;44.272;19.892;2022-10-30T11:57:40;11.80;;;10.70;;
10031;SDS011;5056;44.272;19.892;2022-10-30T12:00:12;12.93;;;11.27;;
10031;SDS011;5056;44.272;19.892;2022-10-30T12:02:41;13.15;;;11.85;;
10031;SDS011;5056;44.272;19.892;2022-10-30T12:05:29;13.13;;;11.82;;
10031;SDS011;5056;44.272;19.892;2022-10-30T12:08:11;11.63;;;10.13;;
10031;SDS011;5056;44.272;19.892;2022-10-30T12:14:04;13.40;;;12.10;;
10031;SDS011;5056;44.272;19.892;2022-10-30T12:16:31;13.95;;;12.63;;
10031;SDS011;5056;44.272;19.892;2022-10-30T12:18:59;14.45;;;13.05;;
10031;SDS011;5056;44.272;19.892;2022-10-30T12:21:28;14.30;;;13.07;;
10031;SDS011;5056;44.272;19.892;2022-10-30T12:23:57;17.02;;;15.25;;
10031;SDS011;5056;44.272;19.892;2022-10-30T12:26:31;16.75;;;15.20;;
10031;SDS011;5056;44.272;19.892;2022-10-30T12:29:00;16.88;;;15.20;;
10031;SDS011;5056;44.272;19.892;2022-10-30T12:31:35;18.48;;;15.77;;
10031;SDS011;5056;44.272;19.892;2022-10-30T12:34:22;17.02;;;15.23;;
10031;SDS011;5056;44.272;19.892;2022-10-30T12:36:54;15.10;;;13.70;;
10031;SDS011;5056;44.272;19.892;2022-10-30T12:39:24;13.82;;;12.43;;
10031;SDS011;5056;44.272;19.892;2022-10-30T12:41:56;13.48;;;12.18;;
10031;SDS011;5056;44.272;19.892;2022-10-30T12:44:26;12.63;;;11.07;;
10031;SDS011;5056;44.272;19.892;2022-10-30T12:46:57;13.00;;;10.57;;
10031;SDS011;5056;44.272;19.892;2022-10-30T12:49:28;10.70;;;9.60;;
10031;SDS011;5056;44.272;19.892;2022-10-30T12:52:17;10.20;;;9.20;;
10031;SDS011;5056;44.272;19.892;2022-10-30T12:54:47;13.57;;;9.52;;
10031;SDS011;5056;44.272;19.892;2022-10-30T12:57:19;11.23;;;10.27;;
10031;SDS011;5056;44.272;19.892;2022-10-30T12:59:54;12.43;;;11.02;;
10031;SDS011;5056;44.272;19.892;2022-10-30T13:02:31;11.75;;;10.75;;
10031;SDS011;5056;44.272;19.892;2022-10-30T13:05:04;12.60;;;11.30;;
10031;SDS011;5056;44.272;19.892;2022-10-30T13:07:40;12.10;;;11.10;;
10031;SDS011;5056;44.272;19.892;2022-10-30T13:10:15;11.73;;;10.55;;
10031;SDS011;5056;44.272;19.892;2022-10-30T13:12:48;13.25;;;11.93;;
10031;SDS011;5056;44.272;19.892;2022-10-30T13:15:21;12.40;;;11.30;;
10031;SDS011;5056;44.272;19.892;2022-10-30T13:17:53;12.40;;;10.68;;
10031;SDS011;5056;44.272;19.892;2022-10-30T13:20:25;11.38;;;10.30;;
10031;SDS011;5056;44.272;19.892;2022-10-30T13:22:54;10.90;;;10.00;;
10031;SDS011;5056;44.272;19.892;2022-10-30T13:25:26;12.57;;;10.73;;
10031;SDS011;5056;44.272;19.892;2022-10-30T13:27:58;13.25;;;10.98;;
10031;SDS011;5056;44.272;19.892;2022-10-30T13:30:32;11.27;;;10.07;;
10031;SDS011;5056;44.272;19.892;2022-10-30T13:33:05;11.90;;;10.70;;
10031;SDS011;5056;44.272;19.892;2022-10-30T13:35:37;11.30;;;10.38;;
10031;SDS011;5056;44.272;19.892;2022-10-30T13:38:12;12.32;;;10.95;;
10031;SDS011;5056;44.272;19.892;2022-10-30T13:40:59;13.15;;;10.82;;
10031;SDS011;5056;44.272;19.892;2022-10-30T13:43:33;12.13;;;11.02;;
10031;SDS011;5056;44.272;19.892;2022-10-30T13:48:52;13.13;;;11.27;;
10031;SDS011;5056;44.272;19.892;2022-10-30T13:51:36;12.13;;;10.50;;
10031;SDS011;5056;44.272;19.892;2022-10-30T13:54:11;12.65;;;10.77;;
10031;SDS011;5056;44.272;19.892;2022-10-30T13:56:41;11.25;;;10.25;;
10031;SDS011;5056;44.272;19.892;2022-10-30T13:59:15;12.02;;;10.32;;
10031;SDS011;5056;44.272;19.892;2022-10-30T14:01:59;11.70;;;10.50;;
10031;SDS011;5056;44.272;19.892;2022-10-30T14:04:31;12.73;;;10.75;;
10031;SDS011;5056;44.272;19.892;2022-10-30T14:07:06;13.40;;;11.98;;
10031;SDS011;5056;44.272;19.892;2022-10-30T14:09:50;13.05;;;11.68;;
10031;SDS011;5056;44.272;19.892;2022-10-30T14:12:50;14.90;;;13.20;;
10031;SDS011;5056;44.272;19.892;2022-10-30T14:15:24;13.75;;;11.63;;
10031;SDS011;5056;44.272;19.892;2022-10-30T14:20:53;23.70;;;14.77;;
10031;SDS011;5056;44.272;19.892;2022-10-30T14:23:28;24.80;;;16.67;;
10031;SDS011;5056;44.272;19.892;2022-10-30T14:28:50;15.88;;;14.43;;
10031;SDS011;5056;44.272;19.892;2022-10-30T14:31:33;18.15;;;14.93;;
10031;SDS011;5056;44.272;19.892;2022-10-30T14:34:00;15.95;;;14.45;;
10031;SDS011;5056;44.272;19.892;2022-10-30T14:39:25;14.80;;;13.30;;
10031;SDS011;5056;44.272;19.892;2022-10-30T14:41:59;15.07;;;13.45;;
10031;SDS011;5056;44.272;19.892;2022-10-30T14:44:51;15.30;;;13.75;;
10031;SDS011;5056;44.272;19.892;2022-10-30T14:47:33;51.17;;;24.98;;
10031;SDS011;5056;44.272;19.892;2022-10-30T14:50:32;31.17;;;21.52;;
10031;SDS011;5056;44.272;19.892;2022-10-30T14:56:29;16.75;;;15.15;;
10031;SDS011;5056;44.272;19.892;2022-10-30T14:59:18;26.27;;;17.25;;
10031;SDS011;5056;44.272;19.892;2022-10-30T15:04:54;29.50;;;19.05;;
10031;SDS011;5056;44.272;19.892;2022-10-30T15:07:30;21.98;;;16.95;;
10031;SDS011;5056;44.272;19.892;2022-10-30T15:10:07;20.42;;;16.35;;
10031;SDS011;5056;44.272;19.892;2022-10-30T15:12:43;18.70;;;16.65;;
10031;SDS011;5056;44.272;19.892;2022-10-30T15:15:19;17.17;;;15.38;;
10031;SDS011;5056;44.272;19.892;2022-10-30T15:17:47;18.30;;;15.13;;
10031;SDS011;5056;44.272;19.892;2022-10-30T15:20:18;17.60;;;15.35;;
10031;SDS011;5056;44.272;19.892;2022-10-30T15:22:47;19.08;;;15.30;;
10031;SDS011;5056;44.272;19.892;2022-10-30T15:25:21;19.65;;;15.35;;
10031;SDS011;5056;44.272;19.892;2022-10-30T15:27:49;19.27;;;16.15;;
10031;SDS011;5056;44.272;19.892;2022-10-30T15:30:20;17.15;;;15.45;;
10031;SDS011;5056;44.272;19.892;2022-10-30T15:32:49;17.33;;;15.50;;
10031;SDS011;5056;44.272;19.892;2022-10-30T15:35:17;18.10;;;14.68;;
10031;SDS011;5056;44.272;19.892;2022-10-30T15:37:57;17.70;;;16.00;;
10031;SDS011;5056;44.272;19.892;2022-10-30T15:40:27;20.85;;;17.98;;
10031;SDS011;5056;44.272;19.892;2022-10-30T15:42:55;22.75;;;19.13;;
10031;SDS011;5056;44.272;19.892;2022-10-30T15:45:24;20.67;;;18.58;;
10031;SDS011;5056;44.272;19.892;2022-10-30T15:47:56;29.05;;;25.88;;
10031;SDS011;5056;44.272;19.892;2022-10-30T15:50:24;33.83;;;30.00;;